Time;durP1;ratioP1;P1;durP2;ratioP2;P2;SDS_P1;SDS_P2;PMS_P1;PMS_P2;Temp;Humidity;BMP_temperature;BMP_pressure;BME280_temperature;BME280_humidity;BME280_pressure;Samples;Min_cycle;Max_cycle;Signal;HPM_P1;HPM_P2
2022/12/22 03:26:48;;;;;;;0.80;0.70;;;;;8.00;93279.00;;;;7387383;19;20151;-78
2022/12/22 03:29:29;;;;;;;1.33;0.77;;;;;8.10;93282.00;;;;7383009;19;20570;-81
2022/12/22 03:31:58;;;;;;;1.50;0.90;;;;;8.20;93273.00;;;;7385156;19;20152;-78
2022/12/22 03:34:32;;;;;;;2.97;1.00;;;;;8.20;93270.00;;;;7385629;19;20167;-78
2022/12/22 03:36:59;;;;;;;1.63;0.80;;;;;8.10;93265.00;;;;7385821;19;21091;-78
2022/12/22 03:39:27;;;;;;;1.80;0.90;;;;;7.90;93271.00;;;;7382956;19;20700;-80
2022/12/22 03:47:40;;;;;;;0.70;0.70;;;;;8.00;93264.00;;;;7386281;19;20128;-77
2022/12/22 03:50:08;;;;;;;3.13;0.90;;;;;7.90;93266.00;;;;7384790;19;20168;-77
2022/12/22 03:52:35;;;;;;;4.43;1.40;;;;;7.90;93271.00;;;;7384331;19;20152;-77
2022/12/22 03:55:09;;;;;;;0.80;0.80;;;;;7.90;93275.00;;;;7383895;19;20198;-77
2022/12/22 03:57:37;;;;;;;1.73;1.10;;;;;7.90;93272.00;;;;7384814;19;20140;-78
2022/12/22 04:00:05;;;;;;;2.43;0.80;;;;;7.90;93267.00;;;;7383586;19;20182;-78
2022/12/22 04:02:39;;;;;;;1.63;1.00;;;;;7.90;93273.00;;;;7383047;19;20148;-79
2022/12/22 04:05:07;;;;;;;4.73;1.33;;;;;8.00;93255.00;;;;7385391;19;20683;-77
2022/12/22 04:07:34;;;;;;;4.07;1.30;;;;;7.80;93254.00;;;;7383756;19;20144;-77
2022/12/22 04:12:55;;;;;;;4.17;1.10;;;;;7.80;93246.00;;;;7393809;19;20125;-77
2022/12/22 04:15:31;;;;;;;1.90;1.13;;;;;7.90;93256.00;;;;7393589;19;21448;-78
2022/12/22 04:17:59;;;;;;;4.13;1.30;;;;;7.80;93257.00;;;;7393707;19;20479;-78
2022/12/22 04:20:27;;;;;;;3.30;1.37;;;;;7.70;93252.00;;;;7392112;19;20682;-78
2022/12/22 04:23:01;;;;;;;1.27;0.80;;;;;7.90;93247.00;;;;7393359;19;20129;-77
2022/12/22 04:25:29;;;;;;;3.37;1.30;;;;;7.90;93238.00;;;;7391323;19;20155;-76
2022/12/22 04:27:58;;;;;;;1.97;0.87;;;;;7.80;93246.00;;;;7393917;19;20206;-76
2022/12/22 04:30:38;;;;;;;1.87;1.20;;;;;7.80;93242.00;;;;7391745;19;20621;-78
2022/12/22 04:33:08;;;;;;;2.30;1.03;;;;;7.80;93243.00;;;;7393649;19;20137;-78
2022/12/22 04:35:43;;;;;;;1.10;1.00;;;;;7.70;93238.00;;;;7392735;19;20171;-78
2022/12/22 04:38:10;;;;;;;2.13;1.17;;;;;7.70;93229.00;;;;7392014;19;20139;-78
2022/12/22 04:40:37;;;;;;;3.03;0.90;;;;;7.80;93237.00;;;;7389993;19;20647;-77
2022/12/22 04:43:11;;;;;;;3.20;1.30;;;;;7.80;93242.00;;;;7391996;19;20129;-77
2022/12/22 04:45:39;;;;;;;4.67;1.37;;;;;7.80;93245.00;;;;7391138;19;20133;-77
2022/12/22 04:48:06;;;;;;;2.90;1.30;;;;;7.70;93241.00;;;;7390613;19;20159;-76
2022/12/22 04:50:40;;;;;;;4.13;1.30;;;;;7.80;93244.00;;;;7392302;19;20117;-77
2022/12/22 04:53:08;;;;;;;1.47;0.97;;;;;7.80;93236.00;;;;7390718;19;21125;-77
2022/12/22 04:55:35;;;;;;;2.37;1.00;;;;;7.80;93232.00;;;;7390771;19;20664;-79
2022/12/22 04:58:09;;;;;;;1.93;0.90;;;;;7.80;93236.00;;;;7390635;19;20152;-78
2022/12/22 05:00:37;;;;;;;3.13;1.07;;;;;7.90;93235.00;;;;7391338;19;20125;-78
2022/12/22 05:03:04;;;;;;;3.40;1.10;;;;;7.80;93244.00;;;;7388547;19;20152;-78
2022/12/22 05:05:38;;;;;;;2.20;0.80;;;;;7.90;93227.00;;;;7389935;19;20188;-77
2022/12/22 05:08:06;;;;;;;2.90;0.90;;;;;7.90;93230.00;;;;7389652;19;20144;-78
2022/12/22 05:10:33;;;;;;;1.70;0.83;;;;;7.90;93229.00;;;;7390379;19;20129;-76
2022/12/22 05:13:07;;;;;;;2.50;0.90;;;;;7.90;93228.00;;;;7387798;19;20584;-77
2022/12/22 05:15:35;;;;;;;1.70;0.50;;;;;7.90;93239.00;;;;7388681;19;20517;-77
2022/12/22 05:18:04;;;;;;;2.17;0.80;;;;;8.00;93226.00;;;;7389457;19;20507;-77
2022/12/22 05:20:39;;;;;;;1.40;0.90;;;;;8.00;93230.00;;;;7389042;19;20135;-77
2022/12/22 05:23:07;;;;;;;1.67;0.60;;;;;8.00;93218.00;;;;7386915;19;20145;-78
2022/12/22 05:25:34;;;;;;;0.97;0.70;;;;;8.00;93218.00;;;;7390413;19;20798;-78
2022/12/22 05:28:10;;;;;;;3.20;1.00;;;;;8.00;93222.00;;;;7387496;19;20559;-76
2022/12/22 05:30:46;;;;;;;2.60;0.80;;;;;7.90;93222.00;;;;7386622;19;20160;-77
2022/12/22 05:33:21;;;;;;;1.17;0.60;;;;;7.90;93195.00;;;;7386803;19;20599;-77
2022/12/22 05:35:51;;;;;;;2.53;0.67;;;;;7.90;93214.00;;;;7387297;19;20152;-76
2022/12/22 05:38:18;;;;;;;3.73;1.00;;;;;7.80;93215.00;;;;7387314;19;20145;-77
2022/12/22 05:40:53;;;;;;;2.57;1.10;;;;;7.70;93204.00;;;;7379253;19;20148;-74
2022/12/22 05:43:30;;;;;;;3.30;1.03;;;;;7.50;93216.00;;;;7384811;19;20865;-74
2022/12/22 05:46:06;;;;;;;5.60;1.20;;;;;7.50;93218.00;;;;7386582;19;20156;-75
2022/12/22 05:48:36;;;;;;;2.50;0.90;;;;;7.60;93217.00;;;;7389268;19;20607;-76
2022/12/22 05:51:07;;;;;;;2.60;0.90;;;;;7.50;93212.00;;;;7388868;19;20148;-77
2022/12/22 05:53:41;;;;;;;5.00;1.10;;;;;7.40;93220.00;;;;7389011;19;20132;-76
2022/12/22 05:56:08;;;;;;;3.77;1.20;;;;;7.40;93221.00;;;;7389800;19;20596;-76
2022/12/22 05:58:39;;;;;;;5.77;1.43;;;;;7.40;93200.00;;;;7388668;19;20627;-76
2022/12/22 06:01:13;;;;;;;4.17;1.50;;;;;7.40;93205.00;;;;7388973;19;20819;-77
2022/12/22 06:03:41;;;;;;;4.60;1.20;;;;;7.30;93207.00;;;;7387718;19;20141;-76
2022/12/22 06:06:08;;;;;;;5.57;1.33;;;;;7.40;93192.00;;;;7387694;19;21629;-76
2022/12/22 06:08:42;;;;;;;3.27;1.07;;;;;7.40;93171.00;;;;7387185;19;20157;-75
2022/12/22 06:11:09;;;;;;;7.17;1.70;;;;;7.20;93162.00;;;;7384673;19;20117;-76
2022/12/22 06:13:37;;;;;;;8.70;1.70;;;;;7.20;93158.00;;;;7385519;19;20164;-76
2022/12/22 06:16:13;;;;;;;6.63;1.43;;;;;7.20;93180.00;;;;7387623;19;20173;-75
2022/12/22 06:18:43;;;;;;;7.83;1.67;;;;;7.20;93186.00;;;;7386632;19;20507;-76
2022/12/22 06:21:10;;;;;;;4.33;1.43;;;;;7.30;93182.00;;;;7386750;19;20132;-75
2022/12/22 06:24:08;;;;;;;6.43;1.80;;;;;7.30;93185.00;;;;7385494;19;20159;-75
2022/12/22 06:26:42;;;;;;;7.57;1.90;;;;;7.30;93183.00;;;;7387408;19;20121;-77
2022/12/22 06:29:23;;;;;;;6.97;1.57;;;;;7.40;93174.00;;;;7386517;19;20152;-76
2022/12/22 06:31:52;;;;;;;8.27;2.00;;;;;7.40;93180.00;;;;7385861;19;21172;-77
2022/12/22 06:34:27;;;;;;;5.27;1.77;;;;;7.50;93188.00;;;;7386347;19;20125;-75
2022/12/22 06:36:56;;;;;;;8.43;1.63;;;;;7.50;93196.00;;;;7386339;19;20156;-76
2022/12/22 06:39:26;;;;;;;12.00;1.70;;;;;7.60;93186.00;;;;7386943;19;20132;-76
2022/12/22 06:44:49;;;;;;;4.37;1.33;;;;;7.60;93181.00;;;;7383593;19;20152;-76
2022/12/22 06:47:24;;;;;;;8.40;2.13;;;;;7.60;93185.00;;;;7387040;19;20128;-76
2022/12/22 06:49:53;;;;;;;7.63;1.70;;;;;7.60;93167.00;;;;7387698;19;20173;-78
2022/12/22 06:52:20;;;;;;;5.93;1.70;;;;;7.50;93191.00;;;;7389349;19;20490;-76
2022/12/22 06:54:55;;;;;;;8.20;1.57;;;;;7.50;93204.00;;;;7390253;19;20156;-77
2022/12/22 06:57:22;;;;;;;8.27;1.73;;;;;7.40;93188.00;;;;7389807;19;20506;-77
2022/12/22 06:59:50;;;;;;;2.87;1.30;;;;;7.50;93190.00;;;;7389979;19;20175;-76
2022/12/22 07:02:24;;;;;;;7.93;2.40;;;;;7.30;93178.00;;;;7387302;19;20132;-76
2022/12/22 07:04:52;;;;;;;10.53;2.00;;;;;7.30;93182.00;;;;7386611;19;20163;-76
2022/12/22 07:07:22;;;;;;;8.63;1.77;;;;;7.10;93197.00;;;;7387402;19;20152;-76
2022/12/22 07:09:57;;;;;;;7.67;2.23;;;;;7.00;93179.00;;;;7387396;19;20135;-77
2022/12/22 07:12:31;;;;;;;9.40;1.80;;;;;7.10;93180.00;;;;7384447;19;20160;-76
2022/12/22 07:15:07;;;;;;;8.57;2.13;;;;;7.00;93214.00;;;;7387291;19;20152;-79
2022/12/22 07:17:34;;;;;;;11.53;2.00;;;;;7.10;93181.00;;;;7386434;19;20132;-79
2022/12/22 07:20:02;;;;;;;8.77;1.90;;;;;7.20;93214.00;;;;7388013;19;20121;-78
2022/12/22 07:22:37;;;;;;;12.30;2.07;;;;;7.20;93240.00;;;;7386998;19;20499;-75
2022/12/22 07:25:05;;;;;;;10.20;2.13;;;;;7.30;93232.00;;;;7383584;19;20161;-75
2022/12/22 07:27:33;;;;;;;6.77;2.00;;;;;7.10;93214.00;;;;7384705;19;20504;-77
2022/12/22 07:30:20;;;;;;;9.27;1.90;;;;;7.30;93216.00;;;;7383064;19;20216;-78
2022/12/22 07:32:55;;;;;;;13.40;2.53;;;;;7.30;93239.00;;;;7383665;19;20164;-77
2022/12/22 07:35:29;;;;;;;8.63;2.20;;;;;7.20;93229.00;;;;7384475;19;20155;-76
2022/12/22 07:37:57;;;;;;;5.23;2.10;;;;;7.20;93191.00;;;;7383118;19;20512;-78
2022/12/22 07:40:25;;;;;;;8.30;1.90;;;;;7.10;93210.00;;;;7383159;19;20502;-76
2022/12/22 07:43:04;;;;;;;8.03;1.80;;;;;7.00;93204.00;;;;7383545;19;20545;-76
2022/12/22 07:45:32;;;;;;;10.33;2.10;;;;;7.00;93186.00;;;;7385203;19;20136;-76
2022/12/22 07:50:23;;;;;;;4.87;1.50;;;;;7.00;93216.00;;;;7393045;19;20621;-75
2022/12/22 07:51:03;;;;;;;10.20;1.60;;;;;7.00;93220.00;;;;7393177;19;20133;-76
2022/12/22 07:53:39;;;;;;;12.10;2.20;;;;;7.00;93201.00;;;;7392958;19;20161;-77
2022/12/22 07:56:07;;;;;;;9.97;2.20;;;;;7.10;93207.00;;;;7391406;19;20156;-76
2022/12/22 07:58:35;;;;;;;5.17;2.10;;;;;7.20;93203.00;;;;7391361;19;20596;-77
2022/12/22 08:01:10;;;;;;;8.83;1.80;;;;;7.30;93215.00;;;;7392217;19;20142;-76
2022/12/22 08:03:37;;;;;;;8.20;2.20;;;;;7.50;93213.00;;;;7390096;19;20158;-76
2022/12/22 08:06:06;;;;;;;7.90;2.00;;;;;7.60;93210.00;;;;7390832;19;20626;-76
2022/12/22 08:08:40;;;;;;;10.03;2.03;;;;;7.60;93216.00;;;;7391461;19;20615;-76
2022/12/22 08:11:07;;;;;;;9.97;2.30;;;;;7.60;93217.00;;;;7391945;19;20516;-76
2022/12/22 08:13:36;;;;;;;7.57;2.23;;;;;7.60;93206.00;;;;7390997;19;20140;-77
2022/12/22 08:16:12;;;;;;;11.77;2.23;;;;;7.70;93205.00;;;;7390304;19;20849;-78
2022/12/22 08:18:41;;;;;;;8.47;2.13;;;;;7.60;93209.00;;;;7393900;19;20145;-79
2022/12/22 08:21:09;;;;;;;10.50;3.00;;;;;7.50;93220.00;;;;7390682;19;20133;-77
2022/12/22 08:23:44;;;;;;;7.83;1.90;;;;;7.40;93198.00;;;;7392836;19;20491;-78
2022/12/22 08:26:15;;;;;;;12.43;2.50;;;;;7.40;93208.00;;;;7386863;19;20709;-78
2022/12/22 08:29:13;;;;;;;10.53;2.30;;;;;7.40;93200.00;;;;7392687;19;20152;-76
2022/12/22 08:31:48;;;;;;;7.40;2.10;;;;;7.50;93214.00;;;;7394880;19;20156;-78
2022/12/22 08:34:22;;;;;;;7.07;1.93;;;;;7.50;93184.00;;;;7404547;19;20172;-77
2022/12/22 08:36:54;;;;;;;9.47;2.20;;;;;8.00;93192.00;;;;7393936;19;20163;-77
2022/12/22 08:39:24;;;;;;;10.17;1.93;;;;;8.20;93194.00;;;;7390043;19;20149;-77
2022/12/22 08:41:58;;;;;;;6.97;1.73;;;;;8.30;93185.00;;;;7388248;19;20148;-76
2022/12/22 08:44:28;;;;;;;6.20;1.80;;;;;8.20;93191.00;;;;7387962;19;20152;-75
2022/12/22 08:46:58;;;;;;;6.40;1.90;;;;;8.60;93190.00;;;;7387919;19;20148;-75
2022/12/22 08:49:35;;;;;;;10.63;2.23;;;;;8.80;93184.00;;;;7388663;19;20843;-75
2022/12/22 08:52:04;;;;;;;5.40;1.80;;;;;8.70;93213.00;;;;7387056;19;20159;-75
2022/12/22 08:54:32;;;;;;;7.20;1.90;;;;;8.10;93228.00;;;;7391051;19;20149;-78
2022/12/22 08:57:08;;;;;;;9.90;2.10;;;;;7.60;93229.00;;;;7391300;19;20408;-75
2022/12/22 08:59:36;;;;;;;5.20;1.80;;;;;7.40;93245.00;;;;7390915;19;20177;-76
2022/12/22 09:02:05;;;;;;;3.90;1.73;;;;;7.20;93239.00;;;;7390976;19;20163;-80
2022/12/22 09:04:41;;;;;;;6.00;1.60;;;;;7.20;93260.00;;;;7391246;19;20132;-78
2022/12/22 09:07:09;;;;;;;8.73;1.83;;;;;7.10;93256.00;;;;7392385;19;20152;-77
2022/12/22 09:09:37;;;;;;;7.43;1.70;;;;;7.00;93249.00;;;;7389780;19;20193;-78
2022/12/22 09:12:17;;;;;;;5.43;1.47;;;;;7.00;93267.00;;;;7393682;19;20180;-77
2022/12/22 09:14:45;;;;;;;7.57;1.60;;;;;7.00;93275.00;;;;7395978;19;20159;-76
2022/12/22 09:17:19;;;;;;;6.80;1.37;;;;;7.00;93269.00;;;;7392176;19;20174;-79
2022/12/22 09:19:47;;;;;;;7.03;1.80;;;;;7.00;93261.00;;;;7389522;19;20169;-76
2022/12/22 09:22:15;;;;;;;5.00;1.20;;;;;7.00;93263.00;;;;7391099;19;20479;-75
2022/12/22 09:24:55;;;;;;;8.00;1.70;;;;;7.00;93270.00;;;;7390442;19;20147;-77
2022/12/22 09:27:22;;;;;;;8.07;1.73;;;;;7.20;93259.00;;;;7391928;19;20648;-78
2022/12/22 09:30:10;;;;;;;6.87;1.67;;;;;7.00;93270.00;;;;7389192;19;20755;-78
2022/12/22 09:32:46;;;;;;;5.63;1.47;;;;;7.00;93287.00;;;;7389695;19;20149;-80
2022/12/22 09:35:20;;;;;;;6.40;1.37;;;;;7.00;93260.00;;;;7389270;19;20160;-78
2022/12/22 09:37:48;;;;;;;6.30;1.40;;;;;7.20;93274.00;;;;7401004;19;20156;-78
2022/12/22 09:40:20;;;;;;;10.07;1.67;;;;;7.10;93270.00;;;;7402624;19;20132;-78
2022/12/22 09:42:54;;;;;;;6.83;1.40;;;;;7.00;93273.00;;;;7393690;19;20140;-77
2022/12/22 09:45:23;;;;;;;2.50;0.80;;;;;7.10;93258.00;;;;7392788;19;20253;-78
2022/12/22 09:47:54;;;;;;;6.80;1.20;;;;;7.10;93260.00;;;;7390441;19;20146;-76
2022/12/22 09:50:31;;;;;;;1.70;0.97;;;;;7.10;93279.00;;;;7391501;19;20254;-78
2022/12/22 09:53:05;;;;;;;4.43;1.40;;;;;7.20;93257.00;;;;7389316;19;20190;-77
2022/12/22 09:55:42;;;;;;;4.10;1.10;;;;;7.30;93269.00;;;;7389391;19;20204;-78
2022/12/22 09:58:25;;;;;;;2.77;0.90;;;;;7.20;93277.00;;;;7389762;19;20152;-77
2022/12/22 10:01:38;;;;;;;3.60;0.90;;;;;7.30;93278.00;;;;7388582;19;20143;-79
2022/12/22 10:04:09;;;;;;;2.80;1.00;;;;;7.40;93289.00;;;;7395438;19;20162;-79
2022/12/22 10:07:00;;;;;;;3.00;1.00;;;;;7.30;93284.00;;;;7398039;19;20157;-79
2022/12/22 10:09:31;;;;;;;4.80;1.03;;;;;7.30;93288.00;;;;7388103;19;20516;-76
2022/12/22 10:12:23;;;;;;;3.07;0.90;;;;;7.40;93302.00;;;;7387790;19;20148;-75
2022/12/22 10:14:53;;;;;;;2.40;0.70;;;;;7.30;93285.00;;;;7391803;19;20156;-79
2022/12/22 10:17:32;;;;;;;2.57;0.80;;;;;7.40;93282.00;;;;7394063;19;20188;-80
2022/12/22 10:20:18;;;;;;;3.13;1.00;;;;;7.40;93290.00;;;;7393375;19;20149;-80
2022/12/22 10:26:04;;;;;;;3.70;0.87;;;;;7.30;93305.00;;;;7382125;19;20700;-77
2022/12/22 10:29:14;;;;;;;4.03;1.00;;;;;7.50;93290.00;;;;7383785;19;20195;-77
2022/12/22 10:32:01;;;;;;;4.33;0.60;;;;;7.40;93310.00;;;;7385531;19;20145;-77
2022/12/22 10:34:42;;;;;;;1.17;0.40;;;;;7.40;93313.00;;;;7375956;19;20196;-77
2022/12/22 10:37:10;;;;;;;2.03;0.87;;;;;7.40;93329.00;;;;7385802;19;20598;-76
2022/12/22 10:39:45;;;;;;;3.70;0.97;;;;;7.50;93311.00;;;;7393664;19;20240;-76
2022/12/22 10:42:28;;;;;;;2.37;0.70;;;;;7.50;93305.00;;;;7370302;19;21642;-77
2022/12/22 10:45:29;;;;;;;3.77;1.40;;;;;7.50;93307.00;;;;7378909;19;20601;-79
2022/12/22 10:48:05;;;;;;;2.50;1.20;;;;;7.50;93315.00;;;;7390758;19;20144;-80
2022/12/22 10:50:48;;;;;;;2.97;0.87;;;;;7.60;93309.00;;;;7392446;19;20165;-78
2022/12/22 10:53:16;;;;;;;4.17;1.10;;;;;7.60;93316.00;;;;7388272;19;20169;-79
2022/12/22 10:56:07;;;;;;;3.20;1.33;;;;;7.60;93313.00;;;;7391747;19;20152;-80
2022/12/22 10:58:48;;;;;;;2.03;0.90;;;;;7.60;93298.00;;;;7396189;19;20151;-80
2022/12/22 11:01:29;;;;;;;5.63;1.07;;;;;7.60;93308.00;;;;7394322;19;20191;-80
2022/12/22 11:04:13;;;;;;;7.73;1.17;;;;;7.70;93295.00;;;;7390599;19;20180;-79
2022/12/22 11:06:48;;;;;;;2.93;0.83;;;;;7.70;93298.00;;;;7390350;19;20224;-80
2022/12/22 11:09:16;;;;;;;4.43;1.40;;;;;7.60;93295.00;;;;7388239;19;20606;-82
2022/12/22 11:12:17;;;;;;;2.10;0.80;;;;;7.50;93288.00;;;;7386547;19;20212;-78
2022/12/22 11:15:01;;;;;;;3.30;0.93;;;;;7.60;93283.00;;;;7391551;19;20149;-79
2022/12/22 11:17:31;;;;;;;3.77;1.00;;;;;8.00;93314.00;;;;7390206;19;20560;-79
2022/12/22 11:20:52;;;;;;;4.70;1.00;;;;;7.90;93321.00;;;;7369304;19;20203;-76
2022/12/22 11:23:48;;;;;;;3.70;1.00;;;;;7.80;93307.00;;;;7400663;19;20148;-77
2022/12/22 11:27:00;;;;;;;4.63;1.17;;;;;7.70;93321.00;;;;7400607;19;20142;-78
2022/12/22 11:29:58;;;;;;;2.60;0.90;;;;;7.60;93324.00;;;;7402622;19;20547;-76
2022/12/22 11:33:01;;;;;;;4.10;1.13;;;;;7.50;93298.00;;;;7401319;19;20159;-75
2022/12/22 11:35:54;;;;;;;2.53;1.13;;;;;7.50;93308.00;;;;7408232;19;20610;-79
2022/12/22 11:38:47;;;;;;;5.20;1.03;;;;;7.50;93314.00;;;;7415195;19;20173;-79
2022/12/22 11:41:53;;;;;;;5.00;1.33;;;;;7.60;93323.00;;;;7404896;19;21171;-77
2022/12/22 11:44:51;;;;;;;4.97;1.03;;;;;7.70;93319.00;;;;7398773;19;20159;-75
2022/12/22 11:47:42;;;;;;;3.53;1.27;;;;;7.70;93305.00;;;;7400208;19;20521;-75
2022/12/22 11:50:33;;;;;;;5.60;1.37;;;;;8.20;93283.00;;;;7401532;19;21509;-71
2022/12/22 11:53:56;;;;;;;4.17;1.20;;;;;8.10;93313.00;;;;7399384;19;20132;-76
2022/12/22 11:57:01;;;;;;;8.47;1.40;;;;;8.10;93314.00;;;;7399509;19;20158;-76
2022/12/22 12:00:00;;;;;;;4.57;1.10;;;;;8.20;93294.00;;;;7400224;19;20145;-75
2022/12/22 12:03:13;;;;;;;2.17;1.17;;;;;8.40;93313.00;;;;7398429;19;20120;-77
2022/12/22 12:05:44;;;;;;;5.50;1.10;;;;;8.00;93311.00;;;;7398072;19;20192;-76
2022/12/22 12:08:36;;;;;;;3.37;1.20;;;;;7.70;93316.00;;;;7398477;19;20662;-73
2022/12/22 12:11:19;;;;;;;6.93;1.50;;;;;7.60;93327.00;;;;7399599;19;20163;-76
2022/12/22 12:14:12;;;;;;;4.13;1.20;;;;;7.60;93315.00;;;;7398824;19;20137;-76
2022/12/22 12:16:58;;;;;;;4.80;1.40;;;;;7.60;93332.00;;;;7399905;19;20129;-75
2022/12/22 12:19:52;;;;;;;6.57;0.93;;;;;7.60;93329.00;;;;7395956;19;20172;-74
2022/12/22 12:22:41;;;;;;;5.60;0.90;;;;;7.60;93319.00;;;;7398359;19;20125;-76
2022/12/22 12:25:38;;;;;;;7.27;1.33;;;;;7.70;93330.00;;;;7395443;19;20152;-76
2022/12/22 12:28:21;;;;;;;4.07;1.10;;;;;7.80;93359.00;;;;7395897;19;20228;-75
2022/12/22 12:30:59;;;;;;;6.33;1.50;;;;;8.00;93346.00;;;;7391245;19;20164;-74
2022/12/22 12:33:52;;;;;;;2.63;1.17;;;;;7.80;93359.00;;;;7389297;19;20137;-75
2022/12/22 12:36:50;;;;;;;3.83;0.83;;;;;7.80;93381.00;;;;7388877;19;20541;-74
2022/12/22 12:39:46;;;;;;;5.23;1.27;;;;;7.60;93342.00;;;;7387546;19;20133;-76
2022/12/22 12:42:32;;;;;;;3.57;1.27;;;;;7.70;93362.00;;;;7391284;19;20128;-78
2022/12/22 12:45:01;;;;;;;3.70;1.03;;;;;7.80;93377.00;;;;7390830;19;20162;-77
2022/12/22 12:47:35;;;;;;;8.03;1.10;;;;;7.90;93364.00;;;;7390923;19;20136;-77
2022/12/22 12:50:27;;;;;;;7.70;1.40;;;;;8.00;93368.00;;;;7391541;19;20606;-76
2022/12/22 12:53:07;;;;;;;3.87;1.03;;;;;8.60;93356.00;;;;7392096;19;20140;-76
2022/12/22 12:55:37;;;;;;;8.23;1.47;;;;;9.10;93341.00;;;;7392220;19;20132;-75
2022/12/22 12:58:38;;;;;;;4.47;1.43;;;;;9.30;93350.00;;;;7389460;19;20650;-75
2022/12/22 13:01:09;;;;;;;4.53;1.30;;;;;8.50;93372.00;;;;7390414;19;20160;-74
2022/12/22 13:03:45;;;;;;;4.90;1.33;;;;;8.00;93374.00;;;;7390293;19;20778;-75
2022/12/22 13:06:45;;;;;;;5.13;1.50;;;;;7.90;93373.00;;;;7386599;19;20144;-74
2022/12/22 13:09:24;;;;;;;4.77;1.27;;;;;7.90;93385.00;;;;7385649;19;20156;-76
2022/12/22 13:12:31;;;;;;;6.00;1.63;;;;;7.90;93378.00;;;;7385197;19;20540;-75
2022/12/22 13:15:27;;;;;;;3.83;1.10;;;;;8.00;93389.00;;;;7385747;19;20598;-75
2022/12/22 13:17:55;;;;;;;4.20;1.00;;;;;7.90;93391.00;;;;7387131;19;20136;-75
2022/12/22 13:20:41;;;;;;;2.70;1.20;;;;;7.70;93390.00;;;;7383731;19;20205;-77
2022/12/22 13:23:15;;;;;;;5.20;1.30;;;;;8.00;93390.00;;;;7386993;19;21469;-77
2022/12/22 13:25:58;;;;;;;4.47;1.70;;;;;8.10;93378.00;;;;7388179;19;20136;-75
2022/12/22 13:28:26;;;;;;;6.00;1.27;;;;;8.10;93375.00;;;;7391062;19;20136;-75
2022/12/22 13:31:26;;;;;;;9.13;1.43;;;;;8.00;93375.00;;;;7388408;19;20164;-76
2022/12/22 13:34:33;;;;;;;6.67;1.40;;;;;7.90;93384.00;;;;7389373;19;20145;-76
2022/12/22 13:37:28;;;;;;;4.20;1.50;;;;;7.80;93392.00;;;;7388974;19;20148;-76
2022/12/22 13:40:26;;;;;;;7.47;1.70;;;;;7.80;93395.00;;;;7389183;19;20214;-77
2022/12/22 13:43:13;;;;;;;6.97;1.53;;;;;7.60;93394.00;;;;7387392;19;20514;-75
2022/12/22 13:45:45;;;;;;;12.10;1.93;;;;;7.50;93411.00;;;;7388218;19;20152;-76
2022/12/22 13:48:22;;;;;;;9.73;2.03;;;;;7.60;93402.00;;;;7388239;19;20148;-77
2022/12/22 13:51:02;;;;;;;7.73;1.80;;;;;7.70;93415.00;;;;7391295;19;20196;-77
2022/12/22 13:53:54;;;;;;;6.10;1.70;;;;;7.70;93404.00;;;;7392140;19;20670;-75
2022/12/22 13:56:51;;;;;;;14.13;2.17;;;;;7.50;93420.00;;;;7390370;19;20156;-76
2022/12/22 13:59:35;;;;;;;11.23;2.40;;;;;7.70;93409.00;;;;7391091;19;20148;-76
2022/12/22 14:02:09;;;;;;;11.40;2.40;;;;;7.60;93414.00;;;;7388862;19;20156;-77
2022/12/22 14:05:04;;;;;;;9.47;2.73;;;;;7.50;93414.00;;;;7391117;19;20156;-76
2022/12/22 14:07:31;;;;;;;15.67;2.53;;;;;7.40;93425.00;;;;7393574;19;20133;-76
2022/12/22 14:10:07;;;;;;;16.47;2.30;;;;;7.40;93418.00;;;;7390697;19;20660;-76
2022/12/22 14:12:43;;;;;;;12.40;2.67;;;;;7.40;93422.00;;;;7391111;19;20499;-75
2022/12/22 14:15:19;;;;;;;14.53;3.00;;;;;7.40;93424.00;;;;7387447;19;20171;-75
2022/12/22 14:17:47;;;;;;;13.00;2.70;;;;;7.50;93425.00;;;;7389620;19;20654;-77
2022/12/22 14:20:34;;;;;;;15.30;2.60;;;;;7.30;93423.00;;;;7390691;19;20176;-77
2022/12/22 14:23:16;;;;;;;20.10;3.17;;;;;7.30;93428.00;;;;7390769;19;20595;-76
2022/12/22 14:25:45;;;;;;;11.97;2.60;;;;;7.20;93448.00;;;;7387916;19;20158;-75
2022/12/22 14:28:27;;;;;;;12.33;2.37;;;;;7.20;93433.00;;;;7390058;19;20149;-76
2022/12/22 14:30:57;;;;;;;11.60;2.53;;;;;7.10;93439.00;;;;7390958;19;20633;-75
2022/12/22 14:33:33;;;;;;;14.87;2.70;;;;;7.20;93447.00;;;;7387728;19;20175;-76
2022/12/22 14:36:25;;;;;;;13.50;2.53;;;;;7.20;93449.00;;;;7389169;19;20151;-77
2022/12/22 14:38:59;;;;;;;13.60;3.03;;;;;7.10;93457.00;;;;7388170;19;20629;-76
2022/12/22 14:41:50;;;;;;;12.50;2.93;;;;;7.20;93442.00;;;;7383622;19;20148;-75
2022/12/22 14:44:42;;;;;;;17.30;2.80;;;;;7.20;93451.00;;;;7388396;19;20139;-74
2022/12/22 14:47:18;;;;;;;14.93;3.10;;;;;7.20;93452.00;;;;7386407;19;20668;-75
2022/12/22 14:50:15;;;;;;;17.57;3.07;;;;;7.10;93470.00;;;;7387613;19;20145;-75
2022/12/22 14:52:57;;;;;;;10.80;2.93;;;;;7.20;93461.00;;;;7387717;19;20619;-74
2022/12/22 14:55:40;;;;;;;21.40;3.27;;;;;7.10;93474.00;;;;7386225;19;20167;-75
2022/12/22 14:58:38;;;;;;;15.60;3.30;;;;;7.20;93473.00;;;;7388625;19;20138;-74
2022/12/22 15:01:21;;;;;;;21.10;3.33;;;;;7.10;93469.00;;;;7386311;19;20603;-76
2022/12/22 15:04:15;;;;;;;12.80;2.70;;;;;7.10;93469.00;;;;7388045;19;20657;-75
2022/12/22 15:06:50;;;;;;;9.57;2.87;;;;;7.10;93478.00;;;;7386117;19;20152;-75
2022/12/22 15:09:19;;;;;;;20.70;3.70;;;;;7.10;93484.00;;;;7386873;19;20152;-75
2022/12/22 15:12:15;;;;;;;12.60;3.30;;;;;7.20;93488.00;;;;7387661;19;20132;-74
2022/12/22 15:14:50;;;;;;;15.10;3.43;;;;;7.20;93485.00;;;;7387817;19;20163;-75
2022/12/22 15:17:22;;;;;;;14.50;3.40;;;;;7.20;93489.00;;;;7389287;19;20156;-76
2022/12/22 15:20:05;;;;;;;14.33;3.00;;;;;7.30;93487.00;;;;7384804;19;20183;-75
2022/12/22 15:22:39;;;;;;;16.63;3.23;;;;;7.20;93490.00;;;;7388526;19;20137;-76
2022/12/22 15:25:16;;;;;;;21.57;3.90;;;;;7.30;93498.00;;;;7386148;19;20160;-74
2022/12/22 15:27:44;;;;;;;14.93;2.90;;;;;7.20;93501.00;;;;7386147;19;20264;-74
2022/12/22 15:30:13;;;;;;;17.47;3.30;;;;;7.20;93498.00;;;;7385179;19;20132;-74
2022/12/22 15:32:54;;;;;;;18.60;3.13;;;;;7.10;93493.00;;;;7384966;19;20175;-74
2022/12/22 15:35:32;;;;;;;23.60;3.00;;;;;7.10;93497.00;;;;7385337;19;20192;-75
2022/12/22 15:38:14;;;;;;;9.93;2.93;;;;;7.20;93487.00;;;;7385822;19;20145;-75
2022/12/22 15:40:42;;;;;;;11.97;3.07;;;;;7.20;93494.00;;;;7385247;19;20124;-75
2022/12/22 15:43:17;;;;;;;17.60;3.20;;;;;7.20;93492.00;;;;7384479;19;20140;-74
2022/12/22 15:46:06;;;;;;;16.80;2.97;;;;;7.00;93504.00;;;;7384280;19;20495;-75
2022/12/22 15:48:40;;;;;;;20.77;3.97;;;;;7.20;93502.00;;;;7382314;19;20202;-72
2022/12/22 15:51:20;;;;;;;14.43;3.13;;;;;7.10;93504.00;;;;7382253;19;20155;-74
2022/12/22 15:53:57;;;;;;;13.70;3.40;;;;;7.00;93502.00;;;;7384766;19;20177;-74
2022/12/22 15:56:26;;;;;;;16.63;3.70;;;;;7.00;93497.00;;;;7383996;19;20133;-74
2022/12/22 15:58:54;;;;;;;14.47;3.10;;;;;7.10;93507.00;;;;7385061;19;20174;-74
2022/12/22 16:01:28;;;;;;;14.57;3.20;;;;;7.10;93495.00;;;;7386014;19;20183;-75
2022/12/22 16:03:56;;;;;;;23.23;3.53;;;;;7.10;93504.00;;;;7384737;19;20587;-74
2022/12/22 16:06:24;;;;;;;19.77;5.10;;;;;7.30;93500.00;;;;7382294;19;20479;-73
2022/12/22 16:08:58;;;;;;;17.37;3.00;;;;;7.30;93504.00;;;;7389273;19;20224;-74
2022/12/22 16:11:26;;;;;;;15.47;2.70;;;;;7.20;93504.00;;;;7391809;19;20152;-75
2022/12/22 16:13:53;;;;;;;14.23;3.13;;;;;7.20;93507.00;;;;7389409;19;20164;-75
2022/12/22 16:16:27;;;;;;;16.50;3.47;;;;;7.20;93507.00;;;;7390379;19;20595;-74
2022/12/22 16:19:01;;;;;;;16.23;3.27;;;;;7.20;93514.00;;;;7389419;19;20753;-75
2022/12/22 16:21:46;;;;;;;17.43;3.37;;;;;7.20;93500.00;;;;7390301;19;20132;-73
2022/12/22 16:24:26;;;;;;;19.27;3.53;;;;;7.20;93488.00;;;;7388174;19;20156;-75
2022/12/22 16:27:01;;;;;;;17.20;3.50;;;;;7.20;93491.00;;;;7392888;19;20200;-75
2022/12/22 16:29:31;;;;;;;11.17;3.17;;;;;7.20;93488.00;;;;7392738;19;20136;-75
2022/12/22 16:32:25;;;;;;;20.40;3.00;;;;;7.30;93477.00;;;;7393485;19;20161;-73
2022/12/22 16:35:14;;;;;;;24.33;2.83;;;;;7.10;93474.00;;;;7394361;19;20606;-74
2022/12/22 16:37:43;;;;;;;14.63;3.63;;;;;7.20;93475.00;;;;7391816;19;20212;-74
2022/12/22 16:40:18;;;;;;;17.23;4.10;;;;;7.20;93473.00;;;;7390214;19;20195;-72
2022/12/22 16:42:57;;;;;;;21.50;4.60;;;;;7.10;93473.00;;;;7392483;19;20535;-73
2022/12/22 16:45:46;;;;;;;20.67;4.20;;;;;6.60;93473.00;;;;7390348;19;20606;-73
2022/12/22 16:48:45;;;;;;;18.70;3.53;;;;;6.90;93465.00;;;;7390100;19;20141;-71
2022/12/22 16:51:36;;;;;;;22.77;4.00;;;;;6.80;93467.00;;;;7389548;19;20189;-73
2022/12/22 16:54:03;;;;;;;21.90;3.97;;;;;6.80;93465.00;;;;7390750;19;20139;-73
2022/12/22 16:56:40;;;;;;;19.90;3.23;;;;;6.80;93465.00;;;;7393105;19;20139;-74